sensor_id;sensor_type;location;lat;lon;timestamp;P1;durP1;ratioP1;P2;durP2;ratioP2
8466;SDS011;4270;48.148;11.648;2024-01-25T00:01:04;15.53;;;2.80;;
8466;SDS011;4270;48.148;11.648;2024-01-25T00:03:29;13.17;;;2.00;;
8466;SDS011;4270;48.148;11.648;2024-01-25T00:05:54;12.00;;;2.67;;
8466;SDS011;4270;48.148;11.648;2024-01-25T00:08:20;9.40;;;2.13;;
8466;SDS011;4270;48.148;11.648;2024-01-25T00:10:46;6.83;;;1.97;;
8466;SDS011;4270;48.148;11.648;2024-01-25T00:13:11;5.80;;;1.53;;
8466;SDS011;4270;48.148;11.648;2024-01-25T00:15:36;10.63;;;2.10;;
8466;SDS011;4270;48.148;11.648;2024-01-25T00:18:02;11.50;;;2.07;;
8466;SDS011;4270;48.148;11.648;2024-01-25T00:20:27;10.57;;;2.50;;
8466;SDS011;4270;48.148;11.648;2024-01-25T00:22:53;11.33;;;3.10;;
8466;SDS011;4270;48.148;11.648;2024-01-25T00:25:18;9.00;;;2.10;;
8466;SDS011;4270;48.148;11.648;2024-01-25T00:27:43;10.63;;;2.10;;
8466;SDS011;4270;48.148;11.648;2024-01-25T00:30:10;7.87;;;2.20;;
8466;SDS011;4270;48.148;11.648;2024-01-25T00:32:35;9.17;;;1.50;;
8466;SDS011;4270;48.148;11.648;2024-01-25T00:35:00;11.57;;;2.10;;
8466;SDS011;4270;48.148;11.648;2024-01-25T00:37:26;12.00;;;2.30;;
8466;SDS011;4270;48.148;11.648;2024-01-25T00:39:51;10.50;;;1.70;;
8466;SDS011;4270;48.148;11.648;2024-01-25T00:42:17;4.53;;;1.60;;
8466;SDS011;4270;48.148;11.648;2024-01-25T00:44:44;4.93;;;1.90;;
8466;SDS011;4270;48.148;11.648;2024-01-25T00:47:10;11.00;;;1.80;;
8466;SDS011;4270;48.148;11.648;2024-01-25T00:49:35;7.77;;;1.43;;
8466;SDS011;4270;48.148;11.648;2024-01-25T00:52:01;8.53;;;2.63;;
8466;SDS011;4270;48.148;11.648;2024-01-25T00:54:27;9.10;;;1.60;;
8466;SDS011;4270;48.148;11.648;2024-01-25T00:56:52;9.20;;;2.20;;
8466;SDS011;4270;48.148;11.648;2024-01-25T00:59:18;10.83;;;2.27;;
8466;SDS011;4270;48.148;11.648;2024-01-25T01:01:44;13.40;;;1.70;;
8466;SDS011;4270;48.148;11.648;2024-01-25T01:04:11;5.63;;;1.80;;
8466;SDS011;4270;48.148;11.648;2024-01-25T01:06:36;10.13;;;1.73;;
8466;SDS011;4270;48.148;11.648;2024-01-25T01:09:02;7.10;;;1.80;;
8466;SDS011;4270;48.148;11.648;2024-01-25T01:11:27;10.93;;;1.80;;
8466;SDS011;4270;48.148;11.648;2024-01-25T01:13:52;5.60;;;1.33;;
8466;SDS011;4270;48.148;11.648;2024-01-25T01:16:17;7.80;;;1.63;;
8466;SDS011;4270;48.148;11.648;2024-01-25T01:18:44;12.13;;;2.03;;
8466;SDS011;4270;48.148;11.648;2024-01-25T01:21:10;8.67;;;1.80;;
8466;SDS011;4270;48.148;11.648;2024-01-25T01:23:35;7.73;;;1.90;;
8466;SDS011;4270;48.148;11.648;2024-01-25T01:26:00;9.87;;;2.00;;
8466;SDS011;4270;48.148;11.648;2024-01-25T01:28:25;7.20;;;2.90;;
8466;SDS011;4270;48.148;11.648;2024-01-25T01:30:50;7.43;;;2.00;;
8466;SDS011;4270;48.148;11.648;2024-01-25T01:33:16;7.90;;;1.97;;
8466;SDS011;4270;48.148;11.648;2024-01-25T01:35:41;9.20;;;2.17;;
8466;SDS011;4270;48.148;11.648;2024-01-25T01:38:06;7.23;;;1.80;;
8466;SDS011;4270;48.148;11.648;2024-01-25T01:40:32;8.70;;;2.13;;
8466;SDS011;4270;48.148;11.648;2024-01-25T01:43:00;8.13;;;2.20;;
8466;SDS011;4270;48.148;11.648;2024-01-25T01:45:26;8.17;;;1.97;;
8466;SDS011;4270;48.148;11.648;2024-01-25T01:47:51;6.07;;;1.50;;
8466;SDS011;4270;48.148;11.648;2024-01-25T01:50:17;9.90;;;1.60;;
8466;SDS011;4270;48.148;11.648;2024-01-25T01:52:42;12.13;;;1.70;;
8466;SDS011;4270;48.148;11.648;2024-01-25T01:55:07;7.60;;;2.30;;
8466;SDS011;4270;48.148;11.648;2024-01-25T01:57:33;11.77;;;2.00;;
8466;SDS011;4270;48.148;11.648;2024-01-25T01:59:59;11.63;;;1.80;;
8466;SDS011;4270;48.148;11.648;2024-01-25T02:02:25;15.90;;;2.60;;
8466;SDS011;4270;48.148;11.648;2024-01-25T02:04:51;10.20;;;2.30;;
8466;SDS011;4270;48.148;11.648;2024-01-25T02:07:17;5.77;;;1.43;;
8466;SDS011;4270;48.148;11.648;2024-01-25T02:09:42;7.80;;;1.43;;
8466;SDS011;4270;48.148;11.648;2024-01-25T02:12:07;10.77;;;2.00;;
8466;SDS011;4270;48.148;11.648;2024-01-25T02:14:33;6.73;;;1.57;;
8466;SDS011;4270;48.148;11.648;2024-01-25T02:16:58;12.23;;;2.03;;
8466;SDS011;4270;48.148;11.648;2024-01-25T02:19:23;7.77;;;1.50;;
8466;SDS011;4270;48.148;11.648;2024-01-25T02:21:49;6.73;;;2.00;;
8466;SDS011;4270;48.148;11.648;2024-01-25T02:24:14;10.43;;;2.10;;
8466;SDS011;4270;48.148;11.648;2024-01-25T02:26:39;10.40;;;2.10;;
8466;SDS011;4270;48.148;11.648;2024-01-25T02:29:05;5.63;;;1.70;;
8466;SDS011;4270;48.148;11.648;2024-01-25T02:31:32;5.20;;;1.73;;
8466;SDS011;4270;48.148;11.648;2024-01-25T02:33:57;8.73;;;1.67;;
8466;SDS011;4270;48.148;11.648;2024-01-25T02:36:22;7.70;;;1.93;;
8466;SDS011;4270;48.148;11.648;2024-01-25T02:38:48;11.77;;;1.97;;
8466;SDS011;4270;48.148;11.648;2024-01-25T02:41:13;4.17;;;1.50;;
8466;SDS011;4270;48.148;11.648;2024-01-25T02:43:38;9.67;;;1.83;;
8466;SDS011;4270;48.148;11.648;2024-01-25T02:46:03;5.57;;;2.13;;
8466;SDS011;4270;48.148;11.648;2024-01-25T02:48:29;7.30;;;2.00;;
8466;SDS011;4270;48.148;11.648;2024-01-25T02:50:54;7.97;;;1.57;;
8466;SDS011;4270;48.148;11.648;2024-01-25T02:53:19;14.10;;;1.77;;
8466;SDS011;4270;48.148;11.648;2024-01-25T02:55:47;11.73;;;2.37;;
8466;SDS011;4270;48.148;11.648;2024-01-25T02:58:13;9.50;;;1.57;;
8466;SDS011;4270;48.148;11.648;2024-01-25T03:00:38;9.53;;;1.50;;
8466;SDS011;4270;48.148;11.648;2024-01-25T03:03:03;6.13;;;2.23;;
8466;SDS011;4270;48.148;11.648;2024-01-25T03:05:29;8.70;;;1.90;;
8466;SDS011;4270;48.148;11.648;2024-01-25T03:07:54;11.20;;;1.87;;
8466;SDS011;4270;48.148;11.648;2024-01-25T03:10:19;15.43;;;1.90;;
8466;SDS011;4270;48.148;11.648;2024-01-25T03:12:45;12.90;;;2.13;;
8466;SDS011;4270;48.148;11.648;2024-01-25T03:15:10;8.90;;;1.80;;
8466;SDS011;4270;48.148;11.648;2024-01-25T03:17:35;9.47;;;1.67;;
8466;SDS011;4270;48.148;11.648;2024-01-25T03:20:01;7.80;;;1.50;;
8466;SDS011;4270;48.148;11.648;2024-01-25T03:22:26;6.90;;;2.27;;
8466;SDS011;4270;48.148;11.648;2024-01-25T03:24:51;15.77;;;2.60;;
8466;SDS011;4270;48.148;11.648;2024-01-25T03:27:16;6.13;;;1.80;;
8466;SDS011;4270;48.148;11.648;2024-01-25T03:29:42;9.80;;;1.93;;
8466;SDS011;4270;48.148;11.648;2024-01-25T03:32:08;7.30;;;1.90;;
8466;SDS011;4270;48.148;11.648;2024-01-25T03:34:33;6.13;;;1.53;;
8466;SDS011;4270;48.148;11.648;2024-01-25T03:36:58;12.53;;;2.00;;
8466;SDS011;4270;48.148;11.648;2024-01-25T03:39:24;8.77;;;1.80;;
8466;SDS011;4270;48.148;11.648;2024-01-25T03:41:52;7.03;;;1.43;;
8466;SDS011;4270;48.148;11.648;2024-01-25T03:44:17;8.80;;;2.00;;
8466;SDS011;4270;48.148;11.648;2024-01-25T03:46:42;5.63;;;1.73;;
8466;SDS011;4270;48.148;11.648;2024-01-25T03:49:08;10.40;;;1.80;;
8466;SDS011;4270;48.148;11.648;2024-01-25T03:51:33;7.17;;;1.53;;
8466;SDS011;4270;48.148;11.648;2024-01-25T03:53:58;10.47;;;1.83;;
8466;SDS011;4270;48.148;11.648;2024-01-25T03:56:23;8.97;;;1.90;;
8466;SDS011;4270;48.148;11.648;2024-01-25T03:58:49;7.10;;;1.70;;
8466;SDS011;4270;48.148;11.648;2024-01-25T04:01:14;8.57;;;2.23;;
8466;SDS011;4270;48.148;11.648;2024-01-25T04:03:39;8.70;;;2.47;;
8466;SDS011;4270;48.148;11.648;2024-01-25T04:06:05;12.90;;;1.90;;
8466;SDS011;4270;48.148;11.648;2024-01-25T04:08:30;7.87;;;2.20;;
8466;SDS011;4270;48.148;11.648;2024-01-25T04:10:55;9.00;;;2.20;;
8466;SDS011;4270;48.148;11.648;2024-01-25T04:13:21;5.20;;;1.50;;
8466;SDS011;4270;48.148;11.648;2024-01-25T04:15:46;6.20;;;2.80;;
8466;SDS011;4270;48.148;11.648;2024-01-25T04:18:11;16.13;;;3.10;;
8466;SDS011;4270;48.148;11.648;2024-01-25T04:20:37;7.60;;;1.77;;
8466;SDS011;4270;48.148;11.648;2024-01-25T04:23:02;11.40;;;2.20;;
8466;SDS011;4270;48.148;11.648;2024-01-25T04:25:27;4.20;;;2.00;;
8466;SDS011;4270;48.148;11.648;2024-01-25T04:27:52;7.30;;;1.57;;
8466;SDS011;4270;48.148;11.648;2024-01-25T04:30:18;6.93;;;1.57;;
8466;SDS011;4270;48.148;11.648;2024-01-25T04:32:43;6.07;;;1.73;;
8466;SDS011;4270;48.148;11.648;2024-01-25T04:35:08;5.73;;;1.30;;
8466;SDS011;4270;48.148;11.648;2024-01-25T04:37:34;12.57;;;3.20;;
8466;SDS011;4270;48.148;11.648;2024-01-25T04:40:00;6.33;;;1.73;;
8466;SDS011;4270;48.148;11.648;2024-01-25T04:42:25;6.33;;;1.53;;
8466;SDS011;4270;48.148;11.648;2024-01-25T04:44:50;5.63;;;1.40;;
8466;SDS011;4270;48.148;11.648;2024-01-25T04:47:15;11.53;;;2.10;;
8466;SDS011;4270;48.148;11.648;2024-01-25T04:49:41;7.73;;;1.63;;
8466;SDS011;4270;48.148;11.648;2024-01-25T04:52:06;5.97;;;1.53;;
8466;SDS011;4270;48.148;11.648;2024-01-25T04:54:31;9.17;;;1.77;;
8466;SDS011;4270;48.148;11.648;2024-01-25T04:56:57;9.57;;;1.73;;
8466;SDS011;4270;48.148;11.648;2024-01-25T04:59:23;14.43;;;2.80;;
8466;SDS011;4270;48.148;11.648;2024-01-25T05:01:48;7.67;;;2.07;;
8466;SDS011;4270;48.148;11.648;2024-01-25T05:04:14;6.40;;;1.50;;
8466;SDS011;4270;48.148;11.648;2024-01-25T05:06:39;9.97;;;1.57;;
8466;SDS011;4270;48.148;11.648;2024-01-25T05:09:04;5.60;;;1.30;;
8466;SDS011;4270;48.148;11.648;2024-01-25T05:11:30;8.00;;;1.60;;
8466;SDS011;4270;48.148;11.648;2024-01-25T05:13:55;11.93;;;1.90;;
8466;SDS011;4270;48.148;11.648;2024-01-25T05:16:20;7.83;;;1.50;;
8466;SDS011;4270;48.148;11.648;2024-01-25T05:18:46;8.30;;;2.43;;
8466;SDS011;4270;48.148;11.648;2024-01-25T05:21:11;7.40;;;2.03;;
8466;SDS011;4270;48.148;11.648;2024-01-25T05:23:36;9.63;;;2.00;;
8466;SDS011;4270;48.148;11.648;2024-01-25T05:26:01;8.53;;;1.50;;
8466;SDS011;4270;48.148;11.648;2024-01-25T05:28:27;5.93;;;1.43;;
8466;SDS011;4270;48.148;11.648;2024-01-25T05:30:52;6.47;;;1.60;;
8466;SDS011;4270;48.148;11.648;2024-01-25T05:33:17;7.80;;;2.00;;
8466;SDS011;4270;48.148;11.648;2024-01-25T05:35:43;6.60;;;1.50;;
8466;SDS011;4270;48.148;11.648;2024-01-25T05:38:08;10.10;;;1.90;;
8466;SDS011;4270;48.148;11.648;2024-01-25T05:40:33;11.07;;;1.80;;
8466;SDS011;4270;48.148;11.648;2024-01-25T05:42:59;3.97;;;1.77;;
8466;SDS011;4270;48.148;11.648;2024-01-25T05:45:24;7.97;;;1.50;;
8466;SDS011;4270;48.148;11.648;2024-01-25T05:47:49;12.57;;;1.57;;
8466;SDS011;4270;48.148;11.648;2024-01-25T05:50:15;6.30;;;1.77;;
8466;SDS011;4270;48.148;11.648;2024-01-25T05:52:40;5.23;;;1.23;;
8466;SDS011;4270;48.148;11.648;2024-01-25T05:55:05;12.20;;;1.60;;
8466;SDS011;4270;48.148;11.648;2024-01-25T05:57:31;10.50;;;1.67;;
8466;SDS011;4270;48.148;11.648;2024-01-25T05:59:57;8.37;;;1.60;;
8466;SDS011;4270;48.148;11.648;2024-01-25T06:02:22;7.80;;;1.73;;
8466;SDS011;4270;48.148;11.648;2024-01-25T06:04:47;8.57;;;2.10;;
8466;SDS011;4270;48.148;11.648;2024-01-25T06:07:12;6.33;;;1.53;;
8466;SDS011;4270;48.148;11.648;2024-01-25T06:09:38;4.63;;;2.20;;
8466;SDS011;4270;48.148;11.648;2024-01-25T06:12:03;6.57;;;1.73;;
8466;SDS011;4270;48.148;11.648;2024-01-25T06:14:29;9.90;;;2.10;;
8466;SDS011;4270;48.148;11.648;2024-01-25T06:16:55;7.73;;;1.73;;
8466;SDS011;4270;48.148;11.648;2024-01-25T06:19:20;7.47;;;1.30;;
8466;SDS011;4270;48.148;11.648;2024-01-25T06:21:45;14.30;;;2.70;;
8466;SDS011;4270;48.148;11.648;2024-01-25T06:24:10;11.00;;;1.57;;
8466;SDS011;4270;48.148;11.648;2024-01-25T06:26:35;10.90;;;2.60;;
8466;SDS011;4270;48.148;11.648;2024-01-25T06:29:01;13.83;;;2.20;;
8466;SDS011;4270;48.148;11.648;2024-01-25T06:31:26;7.30;;;1.73;;
8466;SDS011;4270;48.148;11.648;2024-01-25T06:33:51;7.17;;;1.70;;
8466;SDS011;4270;48.148;11.648;2024-01-25T06:36:18;6.97;;;1.80;;
8466;SDS011;4270;48.148;11.648;2024-01-25T06:38:43;6.30;;;2.20;;
8466;SDS011;4270;48.148;11.648;2024-01-25T06:41:08;11.13;;;2.30;;
8466;SDS011;4270;48.148;11.648;2024-01-25T06:43:34;12.77;;;2.07;;
8466;SDS011;4270;48.148;11.648;2024-01-25T06:45:59;15.90;;;2.27;;
8466;SDS011;4270;48.148;11.648;2024-01-25T06:48:24;6.83;;;2.10;;
8466;SDS011;4270;48.148;11.648;2024-01-25T06:50:49;4.27;;;1.77;;
8466;SDS011;4270;48.148;11.648;2024-01-25T06:53:15;6.53;;;2.40;;
8466;SDS011;4270;48.148;11.648;2024-01-25T06:55:41;5.40;;;1.60;;
8466;SDS011;4270;48.148;11.648;2024-01-25T06:58:06;14.73;;;2.10;;
8466;SDS011;4270;48.148;11.648;2024-01-25T07:00:31;7.27;;;2.00;;
8466;SDS011;4270;48.148;11.648;2024-01-25T07:02:56;6.10;;;1.80;;
8466;SDS011;4270;48.148;11.648;2024-01-25T07:05:22;8.70;;;2.20;;
8466;SDS011;4270;48.148;11.648;2024-01-25T07:07:47;9.93;;;1.80;;
8466;SDS011;4270;48.148;11.648;2024-01-25T07:10:12;12.00;;;2.00;;
8466;SDS011;4270;48.148;11.648;2024-01-25T07:12:38;10.73;;;1.90;;
8466;SDS011;4270;48.148;11.648;2024-01-25T07:15:03;8.40;;;1.73;;
8466;SDS011;4270;48.148;11.648;2024-01-25T07:17:28;15.13;;;3.60;;
8466;SDS011;4270;48.148;11.648;2024-01-25T07:19:54;10.53;;;2.27;;
8466;SDS011;4270;48.148;11.648;2024-01-25T07:22:19;10.00;;;2.10;;
8466;SDS011;4270;48.148;11.648;2024-01-25T07:24:46;9.90;;;2.30;;
8466;SDS011;4270;48.148;11.648;2024-01-25T07:27:11;16.10;;;2.30;;
8466;SDS011;4270;48.148;11.648;2024-01-25T07:29:40;13.40;;;2.70;;
8466;SDS011;4270;48.148;11.648;2024-01-25T07:32:08;9.77;;;2.07;;
8466;SDS011;4270;48.148;11.648;2024-01-25T07:34:33;9.53;;;2.40;;
8466;SDS011;4270;48.148;11.648;2024-01-25T07:36:58;18.07;;;2.40;;
8466;SDS011;4270;48.148;11.648;2024-01-25T07:39:23;14.20;;;2.77;;
8466;SDS011;4270;48.148;11.648;2024-01-25T07:41:52;10.67;;;3.13;;
8466;SDS011;4270;48.148;11.648;2024-01-25T07:44:17;7.90;;;2.60;;
8466;SDS011;4270;48.148;11.648;2024-01-25T07:46:44;14.50;;;2.50;;
8466;SDS011;4270;48.148;11.648;2024-01-25T07:49:09;9.57;;;2.10;;
8466;SDS011;4270;48.148;11.648;2024-01-25T07:51:34;6.40;;;2.10;;
8466;SDS011;4270;48.148;11.648;2024-01-25T07:53:59;7.67;;;2.13;;
8466;SDS011;4270;48.148;11.648;2024-01-25T07:56:25;14.00;;;2.50;;
8466;SDS011;4270;48.148;11.648;2024-01-25T07:58:50;9.43;;;2.27;;
8466;SDS011;4270;48.148;11.648;2024-01-25T08:01:19;11.80;;;2.13;;
8466;SDS011;4270;48.148;11.648;2024-01-25T08:03:44;13.97;;;2.87;;
8466;SDS011;4270;48.148;11.648;2024-01-25T08:06:10;11.10;;;2.53;;
8466;SDS011;4270;48.148;11.648;2024-01-25T08:08:36;8.50;;;2.00;;
8466;SDS011;4270;48.148;11.648;2024-01-25T08:11:02;8.50;;;1.73;;
8466;SDS011;4270;48.148;11.648;2024-01-25T08:13:29;11.53;;;1.90;;
8466;SDS011;4270;48.148;11.648;2024-01-25T08:15:54;5.67;;;2.20;;
8466;SDS011;4270;48.148;11.648;2024-01-25T08:18:20;9.63;;;2.20;;
8466;SDS011;4270;48.148;11.648;2024-01-25T08:20:47;12.43;;;3.60;;
8466;SDS011;4270;48.148;11.648;2024-01-25T08:23:13;10.00;;;2.50;;
8466;SDS011;4270;48.148;11.648;2024-01-25T08:25:38;12.17;;;2.70;;
8466;SDS011;4270;48.148;11.648;2024-01-25T08:28:04;10.33;;;2.50;;
8466;SDS011;4270;48.148;11.648;2024-01-25T08:30:30;11.97;;;2.70;;
8466;SDS011;4270;48.148;11.648;2024-01-25T08:32:55;6.53;;;2.07;;
8466;SDS011;4270;48.148;11.648;2024-01-25T08:35:20;10.10;;;3.03;;
8466;SDS011;4270;48.148;11.648;2024-01-25T08:37:46;16.20;;;2.70;;
8466;SDS011;4270;48.148;11.648;2024-01-25T08:40:11;10.87;;;2.60;;
8466;SDS011;4270;48.148;11.648;2024-01-25T08:42:37;10.00;;;2.70;;
8466;SDS011;4270;48.148;11.648;2024-01-25T08:45:02;9.43;;;1.97;;
8466;SDS011;4270;48.148;11.648;2024-01-25T08:47:28;7.87;;;2.47;;
8466;SDS011;4270;48.148;11.648;2024-01-25T08:49:53;13.47;;;3.13;;
8466;SDS011;4270;48.148;11.648;2024-01-25T08:52:18;9.30;;;3.00;;
8466;SDS011;4270;48.148;11.648;2024-01-25T08:54:44;13.00;;;3.00;;
8466;SDS011;4270;48.148;11.648;2024-01-25T08:57:09;13.00;;;3.50;;
8466;SDS011;4270;48.148;11.648;2024-01-25T08:59:34;12.20;;;2.47;;
8466;SDS011;4270;48.148;11.648;2024-01-25T09:02:05;9.07;;;2.70;;
8466;SDS011;4270;48.148;11.648;2024-01-25T09:04:31;15.93;;;3.10;;
8466;SDS011;4270;48.148;11.648;2024-01-25T09:06:57;10.43;;;2.40;;
8466;SDS011;4270;48.148;11.648;2024-01-25T09:09:22;13.60;;;3.17;;
8466;SDS011;4270;48.148;11.648;2024-01-25T09:11:48;11.57;;;3.20;;
8466;SDS011;4270;48.148;11.648;2024-01-25T09:14:13;7.00;;;2.37;;
8466;SDS011;4270;48.148;11.648;2024-01-25T09:16:38;14.30;;;2.83;;
8466;SDS011;4270;48.148;11.648;2024-01-25T09:19:04;12.10;;;2.80;;
8466;SDS011;4270;48.148;11.648;2024-01-25T09:21:29;13.13;;;2.53;;
8466;SDS011;4270;48.148;11.648;2024-01-25T09:23:55;11.80;;;2.70;;
8466;SDS011;4270;48.148;11.648;2024-01-25T09:26:20;15.57;;;3.33;;
8466;SDS011;4270;48.148;11.648;2024-01-25T09:28:45;10.40;;;3.53;;
8466;SDS011;4270;48.148;11.648;2024-01-25T09:31:10;9.23;;;3.30;;
8466;SDS011;4270;48.148;11.648;2024-01-25T09:33:36;14.60;;;3.60;;
8466;SDS011;4270;48.148;11.648;2024-01-25T09:36:04;13.77;;;3.83;;
8466;SDS011;4270;48.148;11.648;2024-01-25T09:38:29;14.50;;;3.67;;
8466;SDS011;4270;48.148;11.648;2024-01-25T09:40:55;16.70;;;3.73;;
8466;SDS011;4270;48.148;11.648;2024-01-25T09:43:21;11.13;;;3.40;;
8466;SDS011;4270;48.148;11.648;2024-01-25T09:45:48;12.93;;;3.30;;
8466;SDS011;4270;48.148;11.648;2024-01-25T09:48:14;18.07;;;3.03;;
8466;SDS011;4270;48.148;11.648;2024-01-25T09:50:40;16.13;;;3.87;;
8466;SDS011;4270;48.148;11.648;2024-01-25T09:53:06;14.10;;;3.20;;
8466;SDS011;4270;48.148;11.648;2024-01-25T09:55:32;14.43;;;4.00;;
8466;SDS011;4270;48.148;11.648;2024-01-25T09:58:02;18.57;;;3.57;;
8466;SDS011;4270;48.148;11.648;2024-01-25T10:00:28;12.63;;;2.80;;
8466;SDS011;4270;48.148;11.648;2024-01-25T10:02:53;20.20;;;4.17;;
8466;SDS011;4270;48.148;11.648;2024-01-25T10:05:18;19.20;;;4.00;;
8466;SDS011;4270;48.148;11.648;2024-01-25T10:07:44;8.20;;;3.13;;
8466;SDS011;4270;48.148;11.648;2024-01-25T10:10:10;12.73;;;3.73;;
8466;SDS011;4270;48.148;11.648;2024-01-25T10:12:36;14.53;;;3.83;;
8466;SDS011;4270;48.148;11.648;2024-01-25T10:15:05;14.20;;;3.20;;
8466;SDS011;4270;48.148;11.648;2024-01-25T10:17:31;17.13;;;4.83;;
8466;SDS011;4270;48.148;11.648;2024-01-25T10:19:56;10.20;;;3.20;;
8466;SDS011;4270;48.148;11.648;2024-01-25T10:22:21;15.50;;;3.60;;
8466;SDS011;4270;48.148;11.648;2024-01-25T10:24:46;12.33;;;3.43;;
8466;SDS011;4270;48.148;11.648;2024-01-25T10:27:15;10.00;;;2.60;;
8466;SDS011;4270;48.148;11.648;2024-01-25T10:29:41;9.53;;;2.47;;
8466;SDS011;4270;48.148;11.648;2024-01-25T10:32:06;15.67;;;3.83;;
8466;SDS011;4270;48.148;11.648;2024-01-25T10:34:33;17.53;;;3.93;;
8466;SDS011;4270;48.148;11.648;2024-01-25T10:37:00;7.87;;;2.57;;
8466;SDS011;4270;48.148;11.648;2024-01-25T10:39:26;8.87;;;2.73;;
8466;SDS011;4270;48.148;11.648;2024-01-25T10:41:53;9.53;;;2.63;;
8466;SDS011;4270;48.148;11.648;2024-01-25T10:44:18;12.47;;;3.23;;
8466;SDS011;4270;48.148;11.648;2024-01-25T10:46:46;9.50;;;3.23;;
8466;SDS011;4270;48.148;11.648;2024-01-25T10:49:11;14.23;;;3.97;;
8466;SDS011;4270;48.148;11.648;2024-01-25T10:51:37;13.40;;;3.93;;
8466;SDS011;4270;48.148;11.648;2024-01-25T10:54:02;12.37;;;3.60;;
8466;SDS011;4270;48.148;11.648;2024-01-25T10:56:31;14.90;;;3.90;;
8466;SDS011;4270;48.148;11.648;2024-01-25T10:58:56;12.37;;;4.00;;
8466;SDS011;4270;48.148;11.648;2024-01-25T11:01:21;10.97;;;3.20;;
8466;SDS011;4270;48.148;11.648;2024-01-25T11:03:47;10.93;;;3.53;;
8466;SDS011;4270;48.148;11.648;2024-01-25T11:06:12;13.93;;;3.97;;
8466;SDS011;4270;48.148;11.648;2024-01-25T11:08:38;6.50;;;2.90;;
8466;SDS011;4270;48.148;11.648;2024-01-25T11:11:07;9.07;;;3.10;;
8466;SDS011;4270;48.148;11.648;2024-01-25T11:13:37;10.30;;;3.70;;
8466;SDS011;4270;48.148;11.648;2024-01-25T11:18:47;9.10;;;2.87;;
8466;SDS011;4270;48.148;11.648;2024-01-25T11:21:21;10.43;;;3.40;;
8466;SDS011;4270;48.148;11.648;2024-01-25T11:23:46;17.33;;;4.03;;
8466;SDS011;4270;48.148;11.648;2024-01-25T11:26:11;11.63;;;2.97;;
8466;SDS011;4270;48.148;11.648;2024-01-25T11:28:36;11.50;;;3.30;;
8466;SDS011;4270;48.148;11.648;2024-01-25T11:31:04;11.73;;;3.30;;
8466;SDS011;4270;48.148;11.648;2024-01-25T11:33:30;13.97;;;3.50;;
8466;SDS011;4270;48.148;11.648;2024-01-25T11:35:55;11.50;;;3.13;;
8466;SDS011;4270;48.148;11.648;2024-01-25T11:38:20;8.33;;;2.70;;
8466;SDS011;4270;48.148;11.648;2024-01-25T11:40:46;12.83;;;3.83;;
8466;SDS011;4270;48.148;11.648;2024-01-25T11:43:14;18.87;;;3.57;;
8466;SDS011;4270;48.148;11.648;2024-01-25T11:45:39;12.87;;;3.20;;
8466;SDS011;4270;48.148;11.648;2024-01-25T11:48:10;22.33;;;3.83;;
8466;SDS011;4270;48.148;11.648;2024-01-25T11:50:35;7.30;;;2.80;;
8466;SDS011;4270;48.148;11.648;2024-01-25T11:53:01;9.50;;;3.77;;
8466;SDS011;4270;48.148;11.648;2024-01-25T11:55:26;14.97;;;4.60;;
8466;SDS011;4270;48.148;11.648;2024-01-25T11:57:51;7.90;;;2.43;;
8466;SDS011;4270;48.148;11.648;2024-01-25T12:00:16;10.77;;;3.53;;
8466;SDS011;4270;48.148;11.648;2024-01-25T12:02:43;10.90;;;3.27;;
8466;SDS011;4270;48.148;11.648;2024-01-25T12:05:08;8.93;;;3.10;;
8466;SDS011;4270;48.148;11.648;2024-01-25T12:07:34;13.20;;;3.10;;
8466;SDS011;4270;48.148;11.648;2024-01-25T12:10:10;14.30;;;2.90;;
8466;SDS011;4270;48.148;11.648;2024-01-25T12:12:40;8.00;;;2.80;;
8466;SDS011;4270;48.148;11.648;2024-01-25T12:15:06;10.83;;;2.60;;
8466;SDS011;4270;48.148;11.648;2024-01-25T12:17:32;11.73;;;3.57;;
8466;SDS011;4270;48.148;11.648;2024-01-25T12:19:58;11.20;;;3.40;;
8466;SDS011;4270;48.148;11.648;2024-01-25T12:22:24;7.43;;;2.53;;
8466;SDS011;4270;48.148;11.648;2024-01-25T12:24:55;10.30;;;3.00;;
8466;SDS011;4270;48.148;11.648;2024-01-25T12:27:20;5.77;;;2.07;;
8466;SDS011;4270;48.148;11.648;2024-01-25T12:29:47;9.30;;;2.40;;
8466;SDS011;4270;48.148;11.648;2024-01-25T12:32:13;9.20;;;3.10;;
8466;SDS011;4270;48.148;11.648;2024-01-25T12:34:39;11.10;;;2.23;;
8466;SDS011;4270;48.148;11.648;2024-01-25T12:37:06;6.67;;;2.30;;
8466;SDS011;4270;48.148;11.648;2024-01-25T12:39:31;8.93;;;2.30;;
8466;SDS011;4270;48.148;11.648;2024-01-25T12:41:56;13.07;;;2.87;;
8466;SDS011;4270;48.148;11.648;2024-01-25T12:44:22;8.63;;;2.63;;
8466;SDS011;4270;48.148;11.648;2024-01-25T12:46:47;12.27;;;2.47;;
8466;SDS011;4270;48.148;11.648;2024-01-25T12:49:12;8.53;;;3.00;;
8466;SDS011;4270;48.148;11.648;2024-01-25T12:51:37;10.57;;;2.50;;
8466;SDS011;4270;48.148;11.648;2024-01-25T12:54:03;6.90;;;2.70;;
8466;SDS011;4270;48.148;11.648;2024-01-25T12:56:28;12.23;;;2.93;;
8466;SDS011;4270;48.148;11.648;2024-01-25T12:58:53;9.60;;;2.73;;
8466;SDS011;4270;48.148;11.648;2024-01-25T13:01:19;9.83;;;3.10;;
8466;SDS011;4270;48.148;11.648;2024-01-25T13:03:45;11.07;;;2.90;;
8466;SDS011;4270;48.148;11.648;2024-01-25T13:06:11;7.97;;;2.57;;
8466;SDS011;4270;48.148;11.648;2024-01-25T13:08:37;6.00;;;1.80;;
8466;SDS011;4270;48.148;11.648;2024-01-25T13:11:02;6.87;;;2.00;;
8466;SDS011;4270;48.148;11.648;2024-01-25T13:13:27;10.20;;;3.00;;
8466;SDS011;4270;48.148;11.648;2024-01-25T13:15:53;6.60;;;1.93;;
8466;SDS011;4270;48.148;11.648;2024-01-25T13:18:18;8.40;;;2.43;;
8466;SDS011;4270;48.148;11.648;2024-01-25T13:20:43;6.70;;;2.67;;
8466;SDS011;4270;48.148;11.648;2024-01-25T13:23:08;13.60;;;4.03;;
8466;SDS011;4270;48.148;11.648;2024-01-25T13:25:33;7.57;;;2.60;;
8466;SDS011;4270;48.148;11.648;2024-01-25T13:27:59;6.70;;;2.87;;
8466;SDS011;4270;48.148;11.648;2024-01-25T13:30:24;9.73;;;2.30;;
8466;SDS011;4270;48.148;11.648;2024-01-25T13:32:49;13.27;;;3.17;;
8466;SDS011;4270;48.148;11.648;2024-01-25T13:35:15;10.53;;;2.67;;
8466;SDS011;4270;48.148;11.648;2024-01-25T13:37:40;10.47;;;3.10;;
8466;SDS011;4270;48.148;11.648;2024-01-25T13:40:05;10.87;;;2.90;;
8466;SDS011;4270;48.148;11.648;2024-01-25T13:42:31;9.40;;;2.47;;
8466;SDS011;4270;48.148;11.648;2024-01-25T13:44:56;6.87;;;2.53;;
8466;SDS011;4270;48.148;11.648;2024-01-25T13:47:21;11.37;;;3.30;;
8466;SDS011;4270;48.148;11.648;2024-01-25T13:49:47;10.10;;;2.50;;
8466;SDS011;4270;48.148;11.648;2024-01-25T13:52:17;11.77;;;2.70;;
8466;SDS011;4270;48.148;11.648;2024-01-25T13:54:42;10.10;;;2.50;;
8466;SDS011;4270;48.148;11.648;2024-01-25T13:57:07;6.00;;;2.23;;
8466;SDS011;4270;48.148;11.648;2024-01-25T13:59:33;6.67;;;2.20;;
8466;SDS011;4270;48.148;11.648;2024-01-25T14:01:58;10.63;;;3.10;;
8466;SDS011;4270;48.148;11.648;2024-01-25T14:04:23;7.10;;;2.30;;
8466;SDS011;4270;48.148;11.648;2024-01-25T14:06:48;5.80;;;1.90;;
8466;SDS011;4270;48.148;11.648;2024-01-25T14:09:14;5.43;;;2.07;;
8466;SDS011;4270;48.148;11.648;2024-01-25T14:11:39;6.90;;;2.40;;
8466;SDS011;4270;48.148;11.648;2024-01-25T14:14:04;9.20;;;2.50;;
8466;SDS011;4270;48.148;11.648;2024-01-25T14:16:30;7.80;;;2.70;;
8466;SDS011;4270;48.148;11.648;2024-01-25T14:18:55;8.03;;;2.20;;
8466;SDS011;4270;48.148;11.648;2024-01-25T14:21:22;9.80;;;2.30;;
8466;SDS011;4270;48.148;11.648;2024-01-25T14:23:47;4.80;;;2.20;;
8466;SDS011;4270;48.148;11.648;2024-01-25T14:26:13;8.00;;;2.50;;
8466;SDS011;4270;48.148;11.648;2024-01-25T14:28:38;8.90;;;2.10;;
8466;SDS011;4270;48.148;11.648;2024-01-25T14:31:03;5.53;;;2.30;;
8466;SDS011;4270;48.148;11.648;2024-01-25T14:33:29;9.00;;;2.50;;
8466;SDS011;4270;48.148;11.648;2024-01-25T14:35:54;9.30;;;2.63;;
8466;SDS011;4270;48.148;11.648;2024-01-25T14:38:19;9.83;;;2.70;;
8466;SDS011;4270;48.148;11.648;2024-01-25T14:40:44;12.00;;;3.73;;
8466;SDS011;4270;48.148;11.648;2024-01-25T14:43:10;10.97;;;3.13;;
8466;SDS011;4270;48.148;11.648;2024-01-25T14:45:35;6.03;;;2.53;;
8466;SDS011;4270;48.148;11.648;2024-01-25T14:48:03;9.43;;;3.00;;